createdAt,value
2024-04-23T00:01:57.848Z,9.70
2024-04-23T00:04:25.092Z,7.30
2024-04-23T00:07:01.887Z,8.45
2024-04-23T00:09:29.543Z,7.43
2024-04-23T00:11:56.702Z,8.02
2024-04-23T00:14:23.818Z,6.60
2024-04-23T00:17:05.429Z,9.73
2024-04-23T00:19:33.588Z,7.75
2024-04-23T00:22:00.955Z,7.35
2024-04-23T00:24:28.053Z,8.98
2024-04-23T00:27:02.385Z,6.95
2024-04-23T00:29:30.643Z,9.52
2024-04-23T00:31:57.946Z,7.53
2024-04-23T00:34:25.440Z,6.57
2024-04-23T00:37:00.084Z,10.20
2024-04-23T00:39:27.942Z,7.25
2024-04-23T00:41:55.159Z,7.53
2024-04-23T00:44:22.604Z,8.07
2024-04-23T00:46:50.675Z,6.47
2024-04-23T00:49:19.201Z,7.97
2024-04-23T00:51:52.277Z,6.57
2024-04-23T00:54:24.558Z,7.10
2024-04-23T00:56:55.298Z,7.65
2024-04-23T00:59:22.616Z,6.20
2024-04-23T01:01:51.611Z,6.13
2024-04-23T01:04:18.829Z,8.68
2024-04-23T01:06:50.932Z,7.78
2024-04-23T01:09:20.274Z,7.28
2024-04-23T01:11:49.182Z,7.40
2024-04-23T01:14:16.750Z,6.72
2024-04-23T01:16:47.172Z,7.75
2024-04-23T01:19:44.258Z,6.15
2024-04-23T01:22:22.386Z,6.30
2024-04-23T01:25:08.734Z,5.85
2024-04-23T01:27:37.223Z,8.20
2024-04-23T01:30:07.808Z,6.68
2024-04-23T01:32:39.331Z,7.30
2024-04-23T01:35:11.507Z,9.27
2024-04-23T01:37:42.753Z,8.65
2024-04-23T01:40:11.959Z,6.75
2024-04-23T01:42:40.718Z,7.50
2024-04-23T01:45:10.660Z,6.07
2024-04-23T01:47:37.864Z,14.43
2024-04-23T01:50:06.023Z,8.27
2024-04-23T01:52:33.363Z,8.23
2024-04-23T01:55:00.555Z,7.65
2024-04-23T01:57:27.607Z,8.65
2024-04-23T02:00:05.296Z,8.27
2024-04-23T02:02:38.134Z,8.60
2024-04-23T02:05:08.183Z,8.70
2024-04-23T02:07:35.771Z,6.72
2024-04-23T02:10:04.506Z,8.70
2024-04-23T02:12:31.778Z,8.15
2024-04-23T02:14:58.828Z,9.55
2024-04-23T02:17:26.102Z,9.25
2024-04-23T02:19:53.199Z,9.25
2024-04-23T02:22:20.746Z,8.40
2024-04-23T02:24:47.794Z,9.20
2024-04-23T02:27:14.840Z,7.90
2024-04-23T02:29:42.259Z,9.05
2024-04-23T02:32:09.352Z,7.80
2024-04-23T02:34:36.475Z,8.57
2024-04-23T02:37:03.535Z,8.07
2024-04-23T02:39:30.622Z,8.77
2024-04-23T02:41:57.757Z,8.15
2024-04-23T02:44:24.797Z,11.25
2024-04-23T02:46:52.301Z,8.75
2024-04-23T02:49:20.170Z,8.43
2024-04-23T02:51:51.349Z,6.57
2024-04-23T02:54:18.413Z,7.10
2024-04-23T02:56:48.422Z,7.47
2024-04-23T02:59:19.832Z,8.07
2024-04-23T03:01:47.246Z,8.18
2024-04-23T03:04:14.511Z,10.80
2024-04-23T03:06:41.635Z,8.88
2024-04-23T03:09:08.659Z,7.38
2024-04-23T03:11:35.811Z,9.10
2024-04-23T03:14:02.933Z,9.00
2024-04-23T03:16:29.995Z,7.55
2024-04-23T03:18:57.056Z,8.70
2024-04-23T03:21:24.116Z,12.52
2024-04-23T03:23:51.104Z,9.88
2024-04-23T03:26:18.107Z,9.10
2024-04-23T03:28:45.145Z,7.95
2024-04-23T03:31:12.325Z,11.45
2024-04-23T03:33:39.321Z,7.97
2024-04-23T03:36:07.396Z,10.18
2024-04-23T03:38:34.583Z,10.20
2024-04-23T03:41:01.855Z,13.05
2024-04-23T03:43:28.974Z,9.00
2024-04-23T03:45:56.042Z,7.78
2024-04-23T03:48:23.500Z,10.38
2024-04-23T03:50:50.575Z,7.70
2024-04-23T03:53:17.565Z,11.23
2024-04-23T03:55:44.661Z,10.88
2024-04-23T03:58:11.739Z,10.38
2024-04-23T04:00:38.735Z,12.80
2024-04-23T04:03:25.021Z,9.88
2024-04-23T04:06:10.098Z,12.27
2024-04-23T04:11:09.014Z,8.25
2024-04-23T04:13:40.904Z,14.57
2024-04-23T04:16:10.942Z,11.63
2024-04-23T04:18:38.478Z,11.43
2024-04-23T04:21:06.779Z,9.07
2024-04-23T04:23:34.379Z,11.05
2024-04-23T04:26:01.634Z,10.75
2024-04-23T04:28:28.773Z,9.13
2024-04-23T04:30:55.916Z,8.48
2024-04-23T04:33:23.245Z,11.57
2024-04-23T04:35:50.394Z,10.30
2024-04-23T04:38:17.637Z,10.57
2024-04-23T04:40:44.733Z,9.95
2024-04-23T04:43:11.739Z,11.05
2024-04-23T04:45:38.814Z,8.25
2024-04-23T04:48:06.418Z,10.05
2024-04-23T04:50:33.474Z,11.05
2024-04-23T04:53:00.582Z,14.98
2024-04-23T04:55:31.692Z,12.05
2024-04-23T04:57:59.240Z,14.45
2024-04-23T05:00:26.418Z,9.90
2024-04-23T05:02:53.530Z,13.88
2024-04-23T05:05:20.603Z,8.95
2024-04-23T05:07:47.672Z,11.65
2024-04-23T05:10:14.972Z,9.63
2024-04-23T05:12:42.031Z,10.43
2024-04-23T05:15:09.202Z,12.55
2024-04-23T05:17:36.389Z,15.15
2024-04-23T05:20:04.091Z,18.08
2024-04-23T05:22:31.312Z,11.52
2024-04-23T05:24:58.461Z,11.63
2024-04-23T05:27:25.583Z,11.48
2024-04-23T05:29:55.501Z,13.32
2024-04-23T05:32:44.447Z,11.65
2024-04-23T05:35:14.039Z,14.52
2024-04-23T05:37:41.817Z,11.68
2024-04-23T05:40:09.425Z,10.98
2024-04-23T05:42:36.506Z,10.70
2024-04-23T05:45:03.899Z,11.15
2024-04-23T05:47:31.158Z,10.55
2024-04-23T05:50:54.114Z,10.27
2024-04-23T05:54:36.600Z,11.70
2024-04-23T05:57:23.043Z,10.82
2024-04-23T05:59:50.109Z,11.52
2024-04-23T06:02:17.090Z,14.77
2024-04-23T06:04:44.165Z,11.98
2024-04-23T06:07:11.297Z,15.50
2024-04-23T06:09:38.336Z,13.40
2024-04-23T06:12:05.625Z,14.18
2024-04-23T06:14:32.647Z,16.58
2024-04-23T06:17:31.927Z,13.32
2024-04-23T06:20:07.190Z,13.05
2024-04-23T06:22:37.725Z,18.08
2024-04-23T06:25:06.934Z,14.90
2024-04-23T06:27:36.218Z,15.98
2024-04-23T06:30:16.541Z,16.38
2024-04-23T06:32:44.099Z,15.90
2024-04-23T06:35:14.546Z,19.27
2024-04-23T06:37:41.705Z,12.07
2024-04-23T06:40:10.609Z,15.32
2024-04-23T06:42:39.346Z,14.68
2024-04-23T06:45:07.514Z,15.20
2024-04-23T06:47:35.969Z,13.70
2024-04-23T06:50:04.586Z,15.00
2024-04-23T06:52:31.930Z,12.45
2024-04-23T06:55:02.250Z,12.98
2024-04-23T06:57:29.871Z,14.52
2024-04-23T06:59:57.112Z,12.70
2024-04-23T07:02:25.591Z,11.52
2024-04-23T07:04:52.922Z,12.88
2024-04-23T07:07:20.037Z,9.10
2024-04-23T07:09:47.063Z,10.15
2024-04-23T07:12:14.031Z,9.70
2024-04-23T07:14:41.405Z,10.23
2024-04-23T07:17:08.860Z,11.40
2024-04-23T07:19:35.993Z,13.73
2024-04-23T07:22:03.158Z,9.02
2024-04-23T07:24:30.294Z,7.82
2024-04-23T07:26:57.301Z,7.20
2024-04-23T07:29:24.478Z,7.22
2024-04-23T07:31:51.731Z,6.70
2024-04-23T07:34:18.773Z,17.10
2024-04-23T07:36:47.092Z,6.40
2024-04-23T07:39:15.067Z,6.22
2024-04-23T07:41:42.699Z,5.00
2024-04-23T07:44:10.184Z,8.00
2024-04-23T07:46:37.597Z,7.78
2024-04-23T07:49:04.852Z,6.45
2024-04-23T07:51:33.796Z,7.57
2024-04-23T07:54:01.220Z,6.80
2024-04-23T07:56:28.329Z,5.45
2024-04-23T07:58:55.559Z,4.65
2024-04-23T08:01:22.652Z,8.93
2024-04-23T08:03:49.698Z,6.80
2024-04-23T08:06:16.800Z,3.75
2024-04-23T08:08:43.913Z,4.40
2024-04-23T08:11:11.116Z,5.90
2024-04-23T08:13:38.300Z,5.85
2024-04-23T08:16:05.927Z,3.40
2024-04-23T08:18:35.032Z,3.53
2024-04-23T08:21:06.863Z,6.78
2024-04-23T08:23:34.820Z,4.00
2024-04-23T08:26:10.168Z,3.72
2024-04-23T08:28:37.847Z,4.80
2024-04-23T08:31:05.542Z,3.80
2024-04-23T08:33:35.360Z,4.75
2024-04-23T08:36:02.671Z,6.30
2024-04-23T08:38:30.961Z,3.58
2024-04-23T08:40:58.494Z,4.85
2024-04-23T08:43:36.094Z,4.00
2024-04-23T08:46:04.874Z,3.33
2024-04-23T08:48:34.985Z,4.05
2024-04-23T08:51:04.431Z,4.63
2024-04-23T08:53:33.913Z,4.72
2024-04-23T08:56:07.136Z,4.38
2024-04-23T08:58:38.595Z,7.80
2024-04-23T09:01:08.376Z,4.32
2024-04-23T09:03:48.469Z,3.95
2024-04-23T09:06:16.917Z,3.92
2024-04-23T09:08:46.180Z,3.38
2024-04-23T09:11:15.290Z,10.57
2024-04-23T09:13:42.802Z,5.63
2024-04-23T09:16:10.227Z,5.80
2024-04-23T09:18:37.829Z,4.00
2024-04-23T09:21:05.679Z,3.78
2024-04-23T09:23:32.795Z,4.60
2024-04-23T09:26:05.512Z,4.30
2024-04-23T09:28:36.255Z,4.30
2024-04-23T09:31:04.927Z,6.78
2024-04-23T09:33:33.421Z,5.30
2024-04-23T09:36:08.686Z,4.05
2024-04-23T09:38:41.313Z,6.63
2024-04-23T09:41:11.300Z,5.00
2024-04-23T09:43:39.230Z,7.10
2024-04-23T09:46:09.930Z,4.82
2024-04-23T09:48:40.138Z,6.70
2024-04-23T09:51:08.550Z,5.20
2024-04-23T09:53:38.309Z,5.13
2024-04-23T09:56:11.363Z,6.13
2024-04-23T09:58:38.484Z,4.47
2024-04-23T10:01:08.372Z,6.43
2024-04-23T10:03:42.108Z,4.53
2024-04-23T10:06:12.183Z,5.03
2024-04-23T10:08:53.159Z,4.70
2024-04-23T10:11:37.761Z,5.85
2024-04-23T10:14:41.123Z,4.15
2024-04-23T10:17:42.790Z,3.72
2024-04-23T10:20:12.318Z,4.43
2024-04-23T10:22:39.717Z,4.97
2024-04-23T10:25:08.159Z,4.15
2024-04-23T10:27:38.798Z,3.55
2024-04-23T10:30:08.061Z,3.70
2024-04-23T10:32:35.516Z,6.00
2024-04-23T10:35:05.747Z,3.60
2024-04-23T10:37:38.021Z,4.05
2024-04-23T10:40:07.516Z,6.25
2024-04-23T10:42:34.734Z,6.75
2024-04-23T10:45:02.784Z,5.15
2024-04-23T10:47:29.969Z,5.43
2024-04-23T10:49:57.078Z,4.03
2024-04-23T10:52:24.180Z,3.50
2024-04-23T10:54:51.567Z,4.07
2024-04-23T10:57:19.191Z,5.40
2024-04-23T10:59:46.404Z,4.20
2024-04-23T11:02:15.548Z,4.18
2024-04-23T11:04:48.376Z,3.88
2024-04-23T11:07:36.177Z,5.55
2024-04-23T11:10:07.653Z,3.35
2024-04-23T11:12:37.760Z,6.20
2024-04-23T11:15:17.737Z,3.13
2024-04-23T11:17:46.532Z,4.40
2024-04-23T11:20:14.991Z,3.85
2024-04-23T11:23:00.537Z,4.15
2024-04-23T11:25:35.715Z,3.88
2024-04-23T11:28:05.966Z,5.25
2024-04-23T11:30:33.880Z,3.95
2024-04-23T11:33:04.290Z,3.35
2024-04-23T11:35:34.051Z,3.80
2024-04-23T11:38:01.104Z,4.53
2024-04-23T11:40:28.364Z,3.72
2024-04-23T11:42:55.641Z,5.72
2024-04-23T11:45:22.770Z,7.50
2024-04-23T11:47:55.416Z,4.18
2024-04-23T11:50:25.456Z,3.67
2024-04-23T11:52:52.616Z,3.45
2024-04-23T11:55:20.932Z,3.92
2024-04-23T11:57:49.104Z,4.60
2024-04-23T12:00:17.319Z,4.32
2024-04-23T12:02:44.911Z,3.95
2024-04-23T12:05:12.517Z,4.88
2024-04-23T12:07:41.343Z,3.45
2024-04-23T12:10:10.402Z,2.95
2024-04-23T12:12:42.653Z,3.92
2024-04-23T12:15:10.864Z,5.38
2024-04-23T12:17:41.198Z,4.82
2024-04-23T12:20:12.846Z,4.25
2024-04-23T12:22:45.976Z,4.15
2024-04-23T12:25:15.769Z,4.53
2024-04-23T12:27:47.991Z,3.30
2024-04-23T12:30:20.265Z,5.70
2024-04-23T12:32:51.376Z,3.85
2024-04-23T12:35:21.979Z,5.10
2024-04-23T12:37:50.024Z,3.90
2024-04-23T12:40:18.201Z,4.20
2024-04-23T12:42:47.324Z,4.47
2024-04-23T12:45:14.797Z,5.35
2024-04-23T12:47:42.215Z,3.92
2024-04-23T12:50:09.605Z,4.80
2024-04-23T12:52:37.336Z,4.85
2024-04-23T12:55:05.245Z,4.93
2024-04-23T12:57:32.448Z,5.20
2024-04-23T12:59:59.450Z,5.10
2024-04-23T13:02:26.605Z,4.75
2024-04-23T13:04:53.776Z,5.53
2024-04-23T13:07:21.814Z,6.25
2024-04-23T13:09:48.912Z,13.82
2024-04-23T13:12:15.999Z,5.75
2024-04-23T13:14:43.088Z,4.05
2024-04-23T13:17:10.249Z,4.65
2024-04-23T13:19:37.512Z,4.47
2024-04-23T13:22:08.641Z,5.35
2024-04-23T13:24:35.749Z,6.20
2024-04-23T13:27:02.758Z,8.02
2024-04-23T13:29:32.012Z,5.10
2024-04-23T13:32:01.062Z,6.30
2024-04-23T13:34:28.450Z,3.80
2024-04-23T13:36:55.566Z,4.50
2024-04-23T13:39:23.375Z,6.65
2024-04-23T13:41:51.892Z,5.70
2024-04-23T13:44:18.968Z,6.53
2024-04-23T13:46:45.995Z,4.57
2024-04-23T13:49:15.778Z,6.00
2024-04-23T13:51:43.039Z,5.68
2024-04-23T13:54:10.125Z,6.47
2024-04-23T13:56:37.253Z,5.97
2024-04-23T13:59:04.663Z,6.40
2024-04-23T14:01:32.703Z,6.28
2024-04-23T14:04:00.079Z,5.80
2024-04-23T14:06:27.167Z,6.15
2024-04-23T14:08:54.308Z,6.97
2024-04-23T14:11:21.385Z,7.05
2024-04-23T14:13:48.454Z,4.78
2024-04-23T14:16:15.724Z,8.95
2024-04-23T14:18:43.148Z,5.80
2024-04-23T14:21:10.435Z,6.25
2024-04-23T14:23:39.359Z,8.85
2024-04-23T14:26:06.617Z,4.80
2024-04-23T14:28:35.404Z,6.32
2024-04-23T14:31:05.962Z,7.40
2024-04-23T14:33:34.028Z,6.50
2024-04-23T14:36:04.386Z,5.70
2024-04-23T14:38:32.370Z,4.68
2024-04-23T14:41:01.316Z,5.97
2024-04-23T14:43:29.003Z,5.00
2024-04-23T14:45:56.536Z,7.85
2024-04-23T14:48:24.743Z,5.55
2024-04-23T14:50:52.316Z,8.00
2024-04-23T14:53:21.753Z,6.20
2024-04-23T14:56:05.362Z,5.68
2024-04-23T14:58:33.958Z,5.60
2024-04-23T15:01:02.389Z,9.60
2024-04-23T15:03:32.650Z,7.03
2024-04-23T15:06:04.662Z,5.22
2024-04-23T15:08:32.798Z,7.00
2024-04-23T15:10:59.906Z,5.32
2024-04-23T15:13:27.009Z,6.85
2024-04-23T15:16:02.048Z,5.28
2024-04-23T15:21:05.846Z,7.15
2024-04-23T15:23:33.902Z,11.63
2024-04-23T15:26:01.677Z,5.90
2024-04-23T15:28:31.822Z,7.50
2024-04-23T15:31:06.856Z,6.00
2024-04-23T15:33:39.702Z,6.30
2024-04-23T15:36:13.277Z,10.32
2024-04-23T15:38:49.319Z,6.97
2024-04-23T15:41:17.761Z,8.43
2024-04-23T15:43:48.457Z,7.05
2024-04-23T15:46:15.755Z,6.90
2024-04-23T15:48:43.148Z,7.07
2024-04-23T15:51:13.168Z,7.45
2024-04-23T15:53:40.195Z,8.30
2024-04-23T15:56:08.538Z,7.32
2024-04-23T15:58:35.685Z,6.88
2024-04-23T16:01:04.172Z,12.35
2024-04-23T16:03:35.012Z,6.68
2024-04-23T16:06:03.953Z,10.25
2024-04-23T16:08:32.631Z,7.15
2024-04-23T16:11:01.924Z,6.45
2024-04-23T16:13:30.049Z,8.77
2024-04-23T16:15:58.879Z,9.32
2024-04-23T16:18:30.497Z,7.45
2024-04-23T16:21:02.347Z,7.88
2024-04-23T16:23:29.698Z,8.02
2024-04-23T16:26:02.354Z,6.00
2024-04-23T16:28:29.816Z,6.88
2024-04-23T16:31:04.909Z,8.52
2024-04-23T16:33:37.412Z,7.55
2024-04-23T16:36:09.375Z,6.43
2024-04-23T16:38:38.096Z,12.75
2024-04-23T16:41:08.394Z,8.77
2024-04-23T16:43:36.674Z,7.22
2024-04-23T16:46:09.714Z,6.70
2024-04-23T16:48:37.985Z,7.50
2024-04-23T16:51:07.432Z,8.13
2024-04-23T16:53:35.167Z,6.10
2024-04-23T16:56:02.291Z,9.05
2024-04-23T16:58:29.443Z,7.80
2024-04-23T17:00:56.538Z,6.55
2024-04-23T17:03:24.099Z,16.88
2024-04-23T17:05:51.904Z,7.57
2024-04-23T17:08:19.067Z,7.03
2024-04-23T17:10:47.607Z,6.40
2024-04-23T17:13:15.219Z,7.18
2024-04-23T17:15:43.843Z,5.78
2024-04-23T17:18:11.248Z,9.25
2024-04-23T17:20:38.423Z,11.77
2024-04-23T17:23:05.596Z,9.68
2024-04-23T17:25:36.861Z,8.55
2024-04-23T17:28:04.650Z,6.57
2024-04-23T17:30:31.791Z,7.35
2024-04-23T17:32:58.911Z,6.65
2024-04-23T17:35:26.035Z,7.82
2024-04-23T17:37:53.166Z,11.25
2024-04-23T17:40:20.288Z,11.18
2024-04-23T17:42:47.498Z,6.82
2024-04-23T17:45:15.123Z,7.60
2024-04-23T17:47:42.359Z,6.80
2024-04-23T17:50:11.727Z,7.88
2024-04-23T17:52:39.419Z,6.57
2024-04-23T17:55:08.487Z,7.85
2024-04-23T17:57:36.078Z,5.18
2024-04-23T18:00:06.417Z,8.43
2024-04-23T18:02:40.049Z,7.00
2024-04-23T18:05:08.100Z,7.35
2024-04-23T18:07:35.291Z,7.97
2024-04-23T18:10:02.949Z,6.78
2024-04-23T18:12:30.369Z,5.07
2024-04-23T18:14:58.091Z,7.80
2024-04-23T18:17:25.443Z,7.45
2024-04-23T18:19:52.780Z,5.90
2024-04-23T18:22:19.937Z,8.25
2024-04-23T18:24:46.940Z,7.68
2024-04-23T18:27:16.758Z,7.88
2024-04-23T18:29:43.798Z,7.65
2024-04-23T18:32:11.661Z,8.13
2024-04-23T18:34:38.873Z,7.18
2024-04-23T18:37:06.091Z,6.93
2024-04-23T18:39:33.231Z,7.85
2024-04-23T18:42:01.141Z,7.13
2024-04-23T18:44:28.193Z,8.13
2024-04-23T18:46:55.240Z,9.57
2024-04-23T18:49:22.370Z,5.53
2024-04-23T18:51:49.786Z,8.98
2024-04-23T18:54:17.274Z,5.85
2024-04-23T18:56:44.767Z,6.93
2024-04-23T18:59:12.027Z,6.20
2024-04-23T19:01:41.561Z,4.32
2024-04-23T19:04:08.849Z,11.38
2024-04-23T19:06:35.836Z,8.02
2024-04-23T19:09:03.099Z,7.38
2024-04-23T19:11:32.604Z,4.80
2024-04-23T19:14:10.765Z,8.32
2024-04-23T19:16:43.830Z,5.80
2024-04-23T19:19:11.403Z,14.20
2024-04-23T19:21:38.562Z,10.50
2024-04-23T19:24:06.303Z,5.95
2024-04-23T19:26:33.906Z,11.05
2024-04-23T19:29:01.115Z,11.48
2024-04-23T19:31:28.207Z,5.88
2024-04-23T19:33:55.522Z,5.13
2024-04-23T19:36:28.561Z,5.47
2024-04-23T19:38:55.644Z,6.20
2024-04-23T19:41:22.702Z,8.18
2024-04-23T19:43:53.307Z,3.58
2024-04-23T19:46:26.570Z,6.45
2024-04-23T19:48:57.050Z,12.55
2024-04-23T19:51:25.096Z,6.97
2024-04-23T19:53:52.270Z,6.05
2024-04-23T19:56:55.827Z,7.60
2024-04-23T19:59:24.592Z,6.68
2024-04-23T20:01:51.907Z,6.35
2024-04-23T20:04:18.977Z,7.68
2024-04-23T20:06:46.309Z,6.93
2024-04-23T20:09:15.728Z,7.43
2024-04-23T20:11:43.600Z,8.02
2024-04-23T20:14:11.003Z,7.60
2024-04-23T20:16:38.070Z,7.25
2024-04-23T20:19:05.226Z,8.32
2024-04-23T20:21:32.283Z,7.68
2024-04-23T20:24:00.253Z,6.97
2024-04-23T20:26:27.408Z,8.45
2024-04-23T20:28:54.761Z,7.72
2024-04-23T20:31:22.423Z,7.18
2024-04-23T20:33:50.135Z,10.20
2024-04-23T20:36:17.471Z,7.88
2024-04-23T20:38:44.620Z,11.88
2024-04-23T20:41:11.967Z,10.00
2024-04-23T20:43:39.195Z,9.48
2024-04-23T20:46:09.620Z,8.07
2024-04-23T20:48:36.977Z,7.28
2024-04-23T20:51:04.961Z,8.52
2024-04-23T20:53:32.159Z,12.43
2024-04-23T20:56:07.096Z,10.75
2024-04-23T20:58:34.888Z,12.88
2024-04-23T21:01:09.745Z,8.07
2024-04-23T21:03:38.963Z,11.20
2024-04-23T21:06:14.110Z,12.02
2024-04-23T21:08:42.581Z,9.30
2024-04-23T21:11:16.398Z,10.85
2024-04-23T21:13:45.032Z,9.23
2024-04-23T21:16:14.786Z,10.68
2024-04-23T21:18:43.578Z,13.32
2024-04-23T21:21:12.261Z,12.50
2024-04-23T21:23:39.494Z,9.98
2024-04-23T21:26:07.074Z,10.30
2024-04-23T21:28:34.130Z,10.82
2024-04-23T21:31:01.951Z,9.38
2024-04-23T21:33:29.497Z,10.55
2024-04-23T21:36:01.766Z,9.50
2024-04-23T21:38:28.884Z,9.45
2024-04-23T21:40:56.140Z,11.85
2024-04-23T21:43:23.159Z,10.88
2024-04-23T21:45:50.299Z,11.02
2024-04-23T21:48:17.379Z,8.90
2024-04-23T21:50:44.473Z,8.50
2024-04-23T21:53:11.904Z,10.95
2024-04-23T21:55:38.936Z,9.50
2024-04-23T21:58:05.933Z,9.07
2024-04-23T22:00:32.957Z,9.70
2024-04-23T22:03:00.100Z,8.88
2024-04-23T22:05:27.329Z,9.35
2024-04-23T22:07:54.419Z,8.43
2024-04-23T22:10:24.274Z,15.70
2024-04-23T22:12:52.082Z,9.55
2024-04-23T22:15:28.110Z,12.25
2024-04-23T22:18:02.959Z,14.02
2024-04-23T22:20:30.152Z,11.32
2024-04-23T22:22:57.283Z,8.90
2024-04-23T22:25:24.311Z,10.32
2024-04-23T22:27:51.387Z,11.60
2024-04-23T22:30:18.679Z,10.98
2024-04-23T22:32:45.811Z,10.43
2024-04-23T22:35:13.042Z,11.25
2024-04-23T22:37:40.119Z,10.57
2024-04-23T22:40:07.819Z,12.77
2024-04-23T22:42:39.080Z,14.80
2024-04-23T22:45:08.166Z,10.70
2024-04-23T22:47:35.751Z,12.90
2024-04-23T22:50:03.007Z,11.48
2024-04-23T22:52:29.994Z,9.52
2024-04-23T22:54:57.029Z,7.03
2024-04-23T22:57:24.137Z,6.80
2024-04-23T22:59:51.143Z,3.40
2024-04-23T23:02:18.281Z,2.58
2024-04-23T23:04:45.422Z,2.38
2024-04-23T23:07:12.526Z,1.77
2024-04-23T23:09:39.843Z,2.45
2024-04-23T23:12:07.383Z,5.38
2024-04-23T23:14:34.558Z,5.45
2024-04-23T23:17:01.688Z,2.95
2024-04-23T23:19:28.755Z,1.70
2024-04-23T23:21:56.356Z,3.95
2024-04-23T23:24:23.526Z,4.20
2024-04-23T23:26:50.530Z,4.25
2024-04-23T23:29:17.624Z,5.65
2024-04-23T23:31:44.797Z,2.35
2024-04-23T23:34:11.901Z,6.07
2024-04-23T23:36:38.975Z,4.25
2024-04-23T23:39:06.111Z,2.35
2024-04-23T23:41:33.318Z,2.90
2024-04-23T23:44:00.496Z,3.35
2024-04-23T23:46:27.650Z,4.90
2024-04-23T23:48:55.032Z,7.25
2024-04-23T23:51:22.071Z,4.75
2024-04-23T23:53:49.112Z,4.22
2024-04-23T23:56:16.184Z,3.50
2024-04-23T23:58:43.218Z,2.92
